createdAt,value
2022-07-28T00:12:58.547Z,494.26148
2022-07-28T00:28:00.765Z,518.17734
2022-07-28T00:43:03.044Z,455.40849
2022-07-28T00:58:05.326Z,463.77557
2022-07-28T01:13:07.774Z,465.9156
2022-07-28T01:28:11.797Z,409.26118
2022-07-28T01:43:14.081Z,414.05627
2022-07-28T01:58:16.373Z,394.85704
2022-07-28T02:13:18.669Z,399.77041
2022-07-28T02:28:20.966Z,331.58085
2022-07-28T02:43:23.238Z,325.07229
2022-07-28T02:58:25.587Z,301.93049
2022-07-28T03:13:27.886Z,305.10911
2022-07-28T03:28:30.162Z,319.98767
2022-07-28T03:43:32.489Z,299.84794
2022-07-28T03:58:35.020Z,305.37702
2022-07-28T04:13:37.477Z,276.48661
2022-07-28T04:28:39.817Z,244.9405
2022-07-28T04:43:42.114Z,224.10596
2022-07-28T04:58:44.610Z,232.49577
2022-07-28T05:13:47.284Z,235.1684
2022-07-28T05:28:49.576Z,218.20049
2022-07-28T05:43:51.873Z,224.39515
2022-07-28T05:58:55.888Z,200.92955
2022-07-28T06:13:58.129Z,196.28012
2022-07-28T06:29:00.405Z,190.57948
2022-07-28T06:44:02.722Z,194.41482
2022-07-28T06:59:05.055Z,204.95559
2022-07-28T07:14:07.344Z,201.86256
2022-07-28T07:29:09.601Z,190.8933
2022-07-28T07:44:12.511Z,191.52406
2022-07-28T07:59:14.991Z,191.73524
2022-07-28T08:14:18.166Z,191.31334
2022-07-28T08:29:20.802Z,178.12235
2022-07-28T08:44:23.118Z,180.66955
2022-07-28T08:59:25.463Z,192.05288
2022-07-28T09:14:27.765Z,188.00388
2022-07-28T09:29:30.036Z,188.00388
2022-07-28T09:44:32.500Z,197.17036
2022-07-28T09:59:34.837Z,215.89773
2022-07-28T10:14:37.165Z,204.59388
2022-07-28T10:29:39.450Z,207.77184
2022-07-28T10:44:46.544Z,209.27213
2022-07-28T10:59:48.876Z,228.07412
2022-07-28T11:14:51.189Z,228.82443
2022-07-28T11:29:53.830Z,223.67356
2022-07-28T11:44:56.324Z,234.21813
2022-07-28T11:59:58.547Z,231.41285
2022-07-28T12:15:06.359Z,230.95182
2022-07-28T12:30:09.517Z,235.00949
2022-07-28T12:45:11.847Z,235.9662
2022-07-28T13:00:14.139Z,223.52979
2022-07-28T13:15:16.520Z,230.95182
2022-07-28T13:30:18.834Z,234.53403
2022-07-28T13:45:22.173Z,245.11313
2022-07-28T14:00:26.235Z,241.20316
2022-07-28T14:15:29.118Z,241.03599
2022-07-28T14:30:31.418Z,254.6244
2022-07-28T14:45:33.691Z,277.81178
2022-07-28T15:01:03.021Z,276.70659
2022-07-28T15:16:05.400Z,276.26698
2022-07-28T15:31:08.687Z,282.55163
2022-07-28T15:46:11.514Z,292.04236
2022-07-28T16:01:13.928Z,295.01518
2022-07-28T16:16:16.318Z,305.37702
2022-07-28T16:31:19.266Z,309.17777
2022-07-28T16:46:21.755Z,310.83578
2022-07-28T17:01:24.241Z,320.57759
2022-07-28T17:16:26.627Z,320.57759
2022-07-28T17:31:29.088Z,326.29224
2022-07-28T17:46:36.158Z,322.06195
2022-07-28T18:01:42.399Z,323.25937
2022-07-28T18:16:47.789Z,337.04373
2022-07-28T18:31:50.210Z,395.74137
2022-07-28T18:46:52.673Z,359.70268
2022-07-28T19:01:55.050Z,348.52789
2022-07-28T19:16:57.639Z,427.84142
2022-07-28T19:32:00.086Z,412.36526
2022-07-28T19:47:02.370Z,427.32408
2022-07-28T20:02:04.865Z,468.07547
2022-07-28T20:17:07.378Z,490.4885
2022-07-28T20:32:09.831Z,498.79599
2022-07-28T20:47:12.157Z,512.91284
2022-07-28T21:02:14.853Z,593.94437
2022-07-28T21:17:17.235Z,624.92818
2022-07-28T21:32:19.530Z,673.13689
2022-07-28T21:47:21.901Z,617.82673
2022-07-28T22:02:24.283Z,607.73327
2022-07-28T22:17:28.078Z,624.37613
2022-07-28T22:32:32.093Z,587.52603
2022-07-28T22:47:34.467Z,586.06452
2022-07-28T23:02:36.905Z,585.09421
2022-07-28T23:17:39.246Z,619.99454
2022-07-28T23:32:41.516Z,626.59022
2022-07-28T23:47:43.764Z,628.82008
